Time;durP1;ratioP1;P1;durP2;ratioP2;P2;SDS_P1;SDS_P2;PMS_P1;PMS_P2;Temp;Humidity;BMP_temperature;BMP_pressure;BME280_temperature;BME280_humidity;BME280_pressure;Samples;Min_cycle;Max_cycle;Signal;HPM_P1;HPM_P2
2022/04/06 00:02:24;;;;;;;12.88;6.65;;;;;;;;;;6294202;28;20090;-80
2022/04/06 00:05:26;;;;;;;15.93;7.43;;;;;;;;;;6292127;28;20130;-79
2022/04/06 00:08:28;;;;;;;12.18;6.10;;;;;;;;;;6293332;28;20098;-79
2022/04/06 00:11:30;;;;;;;12.75;5.90;;;;;;;;;;6293485;28;20044;-80
2022/04/06 00:14:32;;;;;;;12.63;6.00;;;;;;;;;;6291750;28;20064;-80
2022/04/06 00:17:34;;;;;;;11.70;6.53;;;;;;;;;;6293516;28;20067;-78
2022/04/06 00:20:36;;;;;;;13.13;6.35;;;;;;;;;;6293198;28;20056;-78
2022/04/06 00:23:38;;;;;;;12.63;6.95;;;;;;;;;;6281685;28;20049;-80
2022/04/06 00:26:39;;;;;;;9.85;5.28;;;;;;;;;;6267456;28;20122;-80
2022/04/06 00:29:41;;;;;;;11.55;6.13;;;;;;;;;;6288497;28;20146;-80
2022/04/06 00:32:43;;;;;;;11.18;5.78;;;;;;;;;;6290729;28;20141;-79
2022/04/06 00:35:44;;;;;;;12.70;6.07;;;;;;;;;;6287266;28;20059;-79
2022/04/06 00:38:46;;;;;;;11.57;6.30;;;;;;;;;;6282245;28;20060;-81
2022/04/06 00:41:47;;;;;;;11.13;5.32;;;;;;;;;;6265321;28;20059;-80
2022/04/06 00:44:49;;;;;;;9.55;5.30;;;;;;;;;;6277025;28;20230;-80
2022/04/06 00:47:52;;;;;;;11.13;6.20;;;;;;;;;;6288236;28;20044;-80
2022/04/06 00:50:54;;;;;;;11.77;5.28;;;;;;;;;;6289618;28;20565;-80
2022/04/06 00:53:56;;;;;;;11.25;5.22;;;;;;;;;;6289512;28;20117;-80
2022/04/06 00:56:59;;;;;;;9.73;4.75;;;;;;;;;;6291757;28;20618;-80
2022/04/06 01:00:02;;;;;;;9.50;4.65;;;;;;;;;;6281867;28;20505;-79
2022/04/06 01:03:04;;;;;;;;;;;;;;;;;;6267296;28;20099;-79
2022/04/06 01:06:07;;;;;;;11.25;5.35;;;;;;;;;;6266684;28;19988;-80
2022/04/06 01:09:09;;;;;;;8.02;4.45;;;;;;;;;;6267033;28;20724;-80
2022/04/06 01:12:12;;;;;;;10.48;4.63;;;;;;;;;;6266137;28;20083;-79
2022/04/06 01:15:15;;;;;;;10.95;4.88;;;;;;;;;;6269252;28;20396;-80
2022/04/06 01:18:16;;;;;;;10.20;4.22;;;;;;;;;;6266174;28;20071;-80
2022/04/06 01:21:18;;;;;;;7.32;3.83;;;;;;;;;;6267112;28;20133;-80
2022/04/06 01:24:20;;;;;;;4.82;3.15;;;;;;;;;;6267457;28;20037;-79
2022/04/06 01:27:21;;;;;;;9.02;4.00;;;;;;;;;;6291484;28;20130;-80
2022/04/06 01:30:23;;;;;;;11.73;4.43;;;;;;;;;;6276677;28;20061;-80
2022/04/06 01:33:25;;;;;;;9.13;3.65;;;;;;;;;;6265815;28;20129;-79
2022/04/06 01:36:27;;;;;;;10.55;4.60;;;;;;;;;;6280422;28;20052;-80
2022/04/06 01:39:28;;;;;;;9.02;3.85;;;;;;;;;;6289575;28;20064;-80
2022/04/06 01:42:30;;;;;;;7.45;4.57;;;;;;;;;;6280824;28;20076;-80
2022/04/06 01:45:32;;;;;;;10.10;4.60;;;;;;;;;;6290429;28;20052;-80
2022/04/06 01:52:11;;;;;;;9.18;3.88;;;;;;;;;;6267908;28;20040;-80
2022/04/06 01:52:14;;;;;;;10.45;5.22;;;;;;;;;;6265919;28;20130;-79
2022/04/06 01:55:16;;;;;;;11.15;5.10;;;;;;;;;;6274389;28;20904;-80
2022/04/06 01:58:18;;;;;;;12.23;5.18;;;;;;;;;;6290979;28;20044;-79
2022/04/06 02:01:19;;;;;;;9.30;4.97;;;;;;;;;;6273149;28;20048;-80
2022/04/06 02:04:22;;;;;;;8.60;3.92;;;;;;;;;;6288439;28;20052;-81
2022/04/06 02:07:23;;;;;;;9.10;4.68;;;;;;;;;;6287927;28;20059;-79
2022/04/06 02:10:25;;;;;;;13.23;5.22;;;;;;;;;;6268084;28;20053;-80
2022/04/06 02:13:27;;;;;;;10.40;5.47;;;;;;;;;;6281143;28;20102;-79
2022/04/06 02:16:29;;;;;;;12.75;5.03;;;;;;;;;;6287836;28;20045;-80
2022/04/06 02:19:31;;;;;;;9.82;5.05;;;;;;;;;;6289585;28;20047;-80
2022/04/06 02:22:32;;;;;;;12.38;5.05;;;;;;;;;;6288734;28;20056;-81
2022/04/06 02:25:34;;;;;;;10.30;5.47;;;;;;;;;;6266167;28;20485;-80
2022/04/06 02:28:36;;;;;;;12.02;5.65;;;;;;;;;;6266562;28;20114;-80
2022/04/06 02:31:38;;;;;;;9.02;4.38;;;;;;;;;;6265359;28;20525;-80
2022/04/06 02:34:40;;;;;;;11.53;4.60;;;;;;;;;;6266567;28;20112;-80
2022/04/06 02:37:44;;;;;;;12.13;5.25;;;;;;;;;;6269521;28;20052;-79
2022/04/06 02:40:46;;;;;;;16.13;5.65;;;;;;;;;;6269148;28;20060;-80
2022/04/06 02:43:48;;;;;;;9.73;4.82;;;;;;;;;;6268636;28;20502;-80
2022/04/06 02:46:49;;;;;;;12.10;4.75;;;;;;;;;;6281221;28;20125;-79
2022/04/06 02:49:51;;;;;;;11.75;4.72;;;;;;;;;;6296759;28;20090;-80
2022/04/06 02:52:53;;;;;;;11.80;4.35;;;;;;;;;;6296454;28;20048;-80
2022/04/06 02:55:54;;;;;;;8.18;4.90;;;;;;;;;;6275193;28;20088;-80
2022/04/06 02:58:56;;;;;;;7.93;4.00;;;;;;;;;;6271729;28;20056;-80
2022/04/06 03:01:58;;;;;;;10.65;4.03;;;;;;;;;;6296401;28;20178;-81
2022/04/06 03:05:00;;;;;;;9.50;4.07;;;;;;;;;;6311638;28;20166;-80
2022/04/06 03:08:01;;;;;;;11.07;4.07;;;;;;;;;;6294177;28;20110;-81
2022/04/06 03:11:03;;;;;;;11.50;4.65;;;;;;;;;;6295314;28;20044;-81
2022/04/06 03:14:05;;;;;;;13.18;4.63;;;;;;;;;;6293791;28;20052;-78
2022/04/06 03:17:07;;;;;;;7.38;3.80;;;;;;;;;;6271007;28;20053;-79
2022/04/06 03:20:14;;;;;;;12.60;3.63;;;;;;;;;;6270241;28;20041;-80
2022/04/06 03:23:15;;;;;;;5.63;2.90;;;;;;;;;;6270575;28;20101;-80
2022/04/06 03:26:17;;;;;;;9.93;3.80;;;;;;;;;;6271059;28;20110;-79
2022/04/06 03:29:19;;;;;;;8.15;3.35;;;;;;;;;;6271323;28;20077;-80
2022/04/06 03:32:20;;;;;;;7.85;3.30;;;;;;;;;;6270169;28;20091;-79
2022/04/06 03:35:22;;;;;;;9.10;3.45;;;;;;;;;;6270794;28;20061;-79
2022/04/06 03:38:24;;;;;;;5.85;3.20;;;;;;;;;;6285636;28;20502;-80
2022/04/06 03:41:25;;;;;;;8.77;3.50;;;;;;;;;;6270808;28;20175;-81
2022/04/06 03:44:27;;;;;;;10.88;3.65;;;;;;;;;;6272176;28;20167;-79
2022/04/06 03:47:33;;;;;;;8.80;3.03;;;;;;;;;;6291468;28;20082;-79
2022/04/06 03:50:34;;;;;;;7.57;2.67;;;;;;;;;;6291337;28;20082;-79
2022/04/06 03:53:36;;;;;;;7.30;3.17;;;;;;;;;;6282426;28;20052;-81
2022/04/06 03:56:38;;;;;;;6.55;3.30;;;;;;;;;;6287185;28;20045;-80
2022/04/06 03:59:39;;;;;;;8.00;3.22;;;;;;;;;;6284070;28;20051;-80
2022/04/06 04:02:41;;;;;;;5.82;2.97;;;;;;;;;;6284405;28;20170;-80
2022/04/06 04:05:43;;;;;;;5.05;2.35;;;;;;;;;;6295323;28;20049;-80
2022/04/06 04:08:45;;;;;;;8.07;2.70;;;;;;;;;;6288544;28;20127;-80
2022/04/06 04:11:46;;;;;;;8.80;2.70;;;;;;;;;;6268502;28;20116;-80
2022/04/06 04:14:48;;;;;;;6.07;3.17;;;;;;;;;;6271143;28;20076;-79
2022/04/06 04:17:50;;;;;;;6.07;2.65;;;;;;;;;;6284835;28;20098;-79
2022/04/06 04:21:31;;;;;;;5.82;2.63;;;;;;;;;;6269418;28;20133;-80
2022/04/06 04:24:13;;;;;;;6.68;2.67;;;;;;;;;;6269520;28;20542;-79
2022/04/06 04:27:14;;;;;;;5.85;2.70;;;;;;;;;;6270513;28;20507;-79
2022/04/06 04:30:16;;;;;;;8.25;2.20;;;;;;;;;;6269249;28;20150;-79
2022/04/06 04:33:18;;;;;;;7.00;2.58;;;;;;;;;;6269578;28;20044;-78
2022/04/06 04:36:20;;;;;;;7.20;2.80;;;;;;;;;;6269511;28;20052;-80
2022/04/06 04:39:21;;;;;;;6.22;2.58;;;;;;;;;;6274148;28;20567;-79
2022/04/06 04:42:23;;;;;;;7.05;3.00;;;;;;;;;;6267062;28;20136;-79
2022/04/06 04:45:24;;;;;;;5.70;2.50;;;;;;;;;;6282320;28;20091;-78
2022/04/06 04:48:26;;;;;;;5.15;2.47;;;;;;;;;;6293491;28;20052;-79
2022/04/06 04:51:28;;;;;;;5.15;3.10;;;;;;;;;;6293535;28;20059;-79
2022/04/06 04:54:30;;;;;;;7.93;2.50;;;;;;;;;;6272201;28;20498;-79
2022/04/06 04:57:32;;;;;;;5.10;2.33;;;;;;;;;;6267554;28;20068;-80
2022/04/06 05:00:33;;;;;;;5.13;2.17;;;;;;;;;;6267062;28;20359;-79
2022/04/06 05:03:35;;;;;;;7.05;2.33;;;;;;;;;;6268772;28;20657;-79
2022/04/06 05:06:38;;;;;;;5.28;2.30;;;;;;;;;;6267669;28;20049;-78
2022/04/06 05:09:39;;;;;;;3.63;2.63;;;;;;;;;;6283352;28;20044;-80
2022/04/06 05:12:41;;;;;;;4.22;2.25;;;;;;;;;;6293164;28;20071;-80
2022/04/06 05:15:43;;;;;;;4.78;2.40;;;;;;;;;;6252020;28;20505;-79
2022/04/06 05:18:45;;;;;;;6.80;2.28;;;;;;;;;;6268732;28;20060;-80
2022/04/06 05:21:46;;;;;;;4.00;2.00;;;;;;;;;;6268021;28;20469;-80
2022/04/06 05:24:49;;;;;;;5.03;1.77;;;;;;;;;;6267801;28;20064;-79
2022/04/06 05:27:53;;;;;;;5.78;2.10;;;;;;;;;;6268623;28;20075;-79
2022/04/06 05:30:55;;;;;;;4.95;1.80;;;;;;;;;;6267436;28;20128;-79
2022/04/06 05:33:57;;;;;;;5.55;1.98;;;;;;;;;;6268510;28;20406;-79
2022/04/06 05:36:59;;;;;;;4.05;1.73;;;;;;;;;;6267354;28;20041;-80
2022/04/06 05:40:01;;;;;;;4.43;1.75;;;;;;;;;;6299533;28;20229;-79
2022/04/06 05:43:03;;;;;;;5.60;1.60;;;;;;;;;;6243468;28;20043;-80
2022/04/06 05:46:05;;;;;;;3.47;1.60;;;;;;;;;;6247661;28;20187;-79
2022/04/06 05:49:06;;;;;;;5.45;1.90;;;;;;;;;;6267312;28;20057;-80
2022/04/06 05:52:09;;;;;;;4.30;1.60;;;;;;;;;;6258955;28;20522;-78
2022/04/06 05:55:11;;;;;;;4.88;1.60;;;;;;;;;;6241134;28;20049;-79
2022/04/06 05:58:14;;;;;;;5.32;1.52;;;;;;;;;;6265980;28;20061;-79
2022/04/06 06:01:16;;;;;;;5.70;1.83;;;;;;;;;;6264860;28;20125;-77
2022/04/06 06:04:17;;;;;;;2.63;1.42;;;;;;;;;;6265551;28;20056;-78
2022/04/06 06:07:20;;;;;;;3.25;1.35;;;;;;;;;;6281134;28;20059;-79
2022/04/06 06:10:22;;;;;;;2.63;1.50;;;;;;;;;;6267013;28;20103;-79
2022/04/06 06:13:23;;;;;;;3.10;1.60;;;;;;;;;;6267631;28;20052;-79
2022/04/06 06:16:26;;;;;;;5.53;1.42;;;;;;;;;;6266486;28;20067;-78
2022/04/06 06:19:27;;;;;;;2.58;1.30;;;;;;;;;;6267220;28;20049;-79
2022/04/06 06:22:29;;;;;;;2.50;1.27;;;;;;;;;;6265998;28;20051;-78
2022/04/06 06:25:30;;;;;;;5.00;1.20;;;;;;;;;;6266909;28;20128;-79
2022/04/06 06:28:32;;;;;;;4.05;1.45;;;;;;;;;;6266867;28;20045;-78
2022/04/06 06:31:34;;;;;;;3.50;1.40;;;;;;;;;;6266663;28;20045;-78
2022/04/06 06:34:36;;;;;;;3.22;1.08;;;;;;;;;;6266706;28;20040;-77
2022/04/06 06:37:52;;;;;;;3.28;1.10;;;;;;;;;;6264582;28;20041;-81
2022/04/06 06:40:54;;;;;;;2.83;1.30;;;;;;;;;;6290812;28;20064;-79
2022/04/06 06:43:56;;;;;;;4.20;1.38;;;;;;;;;;6289914;28;20090;-80
2022/04/06 06:46:57;;;;;;;5.55;1.77;;;;;;;;;;6311109;28;20164;-80
2022/04/06 06:50:01;;;;;;;1.98;1.48;;;;;;;;;;6287502;28;20607;-80
2022/04/06 06:53:03;;;;;;;5.97;1.70;;;;;;;;;;6277705;28;20083;-80
2022/04/06 06:56:05;;;;;;;2.35;1.30;;;;;;;;;;6265711;28;20072;-79
2022/04/06 06:59:06;;;;;;;2.28;1.27;;;;;;;;;;6265777;28;20041;-81
2022/04/06 07:02:09;;;;;;;4.68;1.48;;;;;;;;;;6266516;28;20182;-81
2022/04/06 07:05:11;;;;;;;4.53;1.10;;;;;;;;;;6266966;28;20060;-80
2022/04/06 07:08:13;;;;;;;2.60;1.13;;;;;;;;;;6272000;28;20493;-80
2022/04/06 07:11:15;;;;;;;2.38;1.05;;;;;;;;;;6269195;28;20183;-79
2022/04/06 07:14:17;;;;;;;2.42;1.15;;;;;;;;;;6276025;28;20082;-80
2022/04/06 07:17:19;;;;;;;2.25;1.13;;;;;;;;;;6299802;28;20111;-80
2022/04/06 07:20:22;;;;;;;3.13;1.02;;;;;;;;;;6269602;28;20087;-80
2022/04/06 07:23:23;;;;;;;4.63;1.30;;;;;;;;;;6269993;28;20049;-80
2022/04/06 07:26:25;;;;;;;4.55;1.20;;;;;;;;;;6249331;28;20052;-80
2022/04/06 07:29:27;;;;;;;3.10;1.30;;;;;;;;;;6246628;28;20068;-80
2022/04/06 07:32:29;;;;;;;5.15;1.20;;;;;;;;;;6271732;28;20128;-79
2022/04/06 07:35:31;;;;;;;2.43;0.87;;;;;;;;;;6285865;28;20126;-80
2022/04/06 07:38:33;;;;;;;5.90;1.40;;;;;;;;;;6288242;28;20106;-80
2022/04/06 07:41:35;;;;;;;2.22;1.15;;;;;;;;;;6292442;28;20044;-80
2022/04/06 07:44:36;;;;;;;2.92;1.20;;;;;;;;;;6283603;28;20044;-78
2022/04/06 07:47:38;;;;;;;2.85;1.38;;;;;;;;;;6287310;28;20072;-79
2022/04/06 07:50:40;;;;;;;3.15;1.15;;;;;;;;;;6307870;28;20105;-80
2022/04/06 07:53:41;;;;;;;3.45;1.27;;;;;;;;;;6283885;28;20120;-80
2022/04/06 07:56:43;;;;;;;2.45;0.90;;;;;;;;;;6268367;28;20045;-80
2022/04/06 07:59:45;;;;;;;4.50;1.30;;;;;;;;;;6268685;28;20057;-80
2022/04/06 08:02:48;;;;;;;2.50;0.95;;;;;;;;;;6283472;28;20124;-81
2022/04/06 08:05:50;;;;;;;3.78;1.20;;;;;;;;;;6270550;28;20053;-80
2022/04/06 08:08:53;;;;;;;2.83;1.20;;;;;;;;;;6270191;28;20045;-79
2022/04/06 08:11:55;;;;;;;3.20;1.07;;;;;;;;;;6270097;28;20497;-81
2022/04/06 08:14:56;;;;;;;2.45;2.17;;;;;;;;;;6266892;28;20068;-79
2022/04/06 08:17:58;;;;;;;3.33;1.05;;;;;;;;;;6267530;28;20069;-77
2022/04/06 08:20:59;;;;;;;2.95;0.93;;;;;;;;;;6267396;28;20488;-79
2022/04/06 08:24:01;;;;;;;6.30;1.35;;;;;;;;;;6268728;28;20822;-78
2022/04/06 08:27:03;;;;;;;2.17;1.10;;;;;;;;;;6267853;28;20041;-79
2022/04/06 08:30:05;;;;;;;4.55;1.25;;;;;;;;;;6267299;28;20079;-78
2022/04/06 08:33:07;;;;;;;4.47;1.05;;;;;;;;;;6269623;28;20094;-80
2022/04/06 08:36:09;;;;;;;2.85;1.15;;;;;;;;;;6268313;28;20052;-82
2022/04/06 08:39:11;;;;;;;4.15;1.80;;;;;;;;;;6267220;28;20052;-79
2022/04/06 08:42:14;;;;;;;3.85;1.20;;;;;;;;;;6267783;28;20049;-81
2022/04/06 08:45:39;;;;;;;4.93;1.10;;;;;;;;;;6269455;28;20052;-81
2022/04/06 08:48:43;;;;;;;2.33;1.40;;;;;;;;;;6293345;28;20051;-79
2022/04/06 08:51:45;;;;;;;3.72;1.50;;;;;;;;;;6292866;28;20113;-81
2022/04/06 08:54:47;;;;;;;3.95;1.10;;;;;;;;;;6271150;28;20041;-80
2022/04/06 08:57:49;;;;;;;3.50;1.20;;;;;;;;;;6280851;27;20510;-80
2022/04/06 09:00:51;;;;;;;2.13;1.00;;;;;;;;;;6272757;28;20048;-80
2022/04/06 09:03:52;;;;;;;4.50;1.20;;;;;;;;;;6304547;28;20071;-80
2022/04/06 09:06:54;;;;;;;1.17;0.93;;;;;;;;;;6286652;28;20143;-81
2022/04/06 09:09:56;;;;;;;1.58;1.02;;;;;;;;;;6278625;28;20051;-80
2022/04/06 09:13:10;;;;;;;2.22;1.00;;;;;;;;;;6279180;28;20698;-81
2022/04/06 09:16:17;;;;;;;1.40;0.98;;;;;;;;;;6268648;28;20048;-80
2022/04/06 09:19:19;;;;;;;2.65;1.42;;;;;;;;;;6268899;28;20421;-79
2022/04/06 09:22:20;;;;;;;3.05;1.20;;;;;;;;;;6266932;28;20048;-80
2022/04/06 09:25:22;;;;;;;1.50;1.13;;;;;;;;;;6282310;28;20140;-81
2022/04/06 09:28:24;;;;;;;4.65;1.20;;;;;;;;;;6292398;28;20074;-80
2022/04/06 09:31:36;;;;;;;3.72;1.95;;;;;;;;;;6290510;28;20148;-81
2022/04/06 09:34:38;;;;;;;2.65;1.10;;;;;;;;;;6292926;28;20068;-79
2022/04/06 09:37:39;;;;;;;3.03;0.95;;;;;;;;;;6292388;28;20040;-79
2022/04/06 09:40:42;;;;;;;3.08;0.90;;;;;;;;;;6290759;28;20120;-81
2022/04/06 09:43:46;;;;;;;3.58;1.10;;;;;;;;;;6268289;28;20493;-82
2022/04/06 09:50:09;;;;;;;2.90;1.02;;;;;;;;;;6293104;28;20127;-79
2022/04/06 09:53:13;;;;;;;2.85;1.17;;;;;;;;;;6280896;28;20051;-80
2022/04/06 09:56:17;;;;;;;3.75;1.25;;;;;;;;;;6268707;28;20348;-81
2022/04/06 09:59:18;;;;;;;4.07;1.75;;;;;;;;;;6266618;28;20116;-82
2022/04/06 10:02:23;;;;;;;3.00;1.30;;;;;;;;;;6267941;28;20102;-79
2022/04/06 10:05:25;;;;;;;4.82;1.60;;;;;;;;;;6268318;28;20052;-80
2022/04/06 10:08:26;;;;;;;2.60;1.30;;;;;;;;;;6268675;28;20061;-80
2022/04/06 10:11:28;;;;;;;3.13;1.60;;;;;;;;;;6268019;28;20104;-82
2022/04/06 10:14:30;;;;;;;3.63;1.38;;;;;;;;;;6267521;28;20041;-80
2022/04/06 10:17:32;;;;;;;4.38;1.50;;;;;;;;;;6281495;28;20049;-80
2022/04/06 10:21:10;;;;;;;4.18;1.73;;;;;;;;;;6265613;28;20064;-80
2022/04/06 10:24:36;;;;;;;4.95;1.73;;;;;;;;;;6246756;28;20051;-80
2022/04/06 10:27:48;;;;;;;3.88;1.88;;;;;;;;;;6262792;28;20037;-80
2022/04/06 10:31:16;;;;;;;2.72;1.35;;;;;;;;;;6281859;28;20052;-81
2022/04/06 10:34:32;;;;;;;4.80;1.90;;;;;;;;;;6290920;28;20064;-79
2022/04/06 10:37:33;;;;;;;3.70;1.92;;;;;;;;;;6292539;28;20049;-80
2022/04/06 10:40:47;;;;;;;11.38;4.80;;;;;;;;;;6269937;28;20067;-81
2022/04/06 10:43:50;;;;;;;5.05;1.60;;;;;;;;;;6267138;28;20063;-79
2022/04/06 10:47:05;;;;;;;1.83;1.33;;;;;;;;;;6280906;28;20135;-81
2022/04/06 10:50:10;;;;;;;1.50;1.20;;;;;;;;;;6279489;28;20118;-79
2022/04/06 10:53:17;;;;;;;3.08;1.42;;;;;;;;;;6285633;28;20578;-80
2022/04/06 10:56:19;;;;;;;5.72;2.40;;;;;;;;;;6282639;28;20068;-80
2022/04/06 10:59:27;;;;;;;4.30;1.70;;;;;;;;;;6275089;28;20122;-81
2022/04/06 11:02:34;;;;;;;4.25;1.80;;;;;;;;;;6273602;28;20048;-81
2022/04/06 11:05:49;;;;;;;1.98;1.60;;;;;;;;;;6286179;28;20078;-78
2022/04/06 11:12:18;;;;;;;5.00;1.55;;;;;;;;;;6294881;28;20056;-80
2022/04/06 11:15:20;;;;;;;2.88;1.40;;;;;;;;;;6283844;28;20158;-81
2022/04/06 11:18:56;;;;;;;3.38;2.00;;;;;;;;;;6271700;28;20128;-80
2022/04/06 11:21:58;;;;;;;3.42;1.67;;;;;;;;;;6241825;28;20061;-81
2022/04/06 11:25:00;;;;;;;5.38;2.13;;;;;;;;;;6244569;28;20052;-79
2022/04/06 11:28:09;;;;;;;2.63;1.50;;;;;;;;;;6243921;28;20121;-80
2022/04/06 11:31:11;;;;;;;5.05;1.85;;;;;;;;;;6244522;28;20045;-81
2022/04/06 11:34:29;;;;;;;3.63;1.50;;;;;;;;;;6244467;28;20055;-81
2022/04/06 11:37:30;;;;;;;2.72;1.33;;;;;;;;;;6245324;28;20052;-81
2022/04/06 11:40:33;;;;;;;4.57;1.80;;;;;;;;;;6271134;28;20417;-81
2022/04/06 11:43:42;;;;;;;3.28;1.48;;;;;;;;;;6271987;28;20068;-79
2022/04/06 11:46:45;;;;;;;3.65;1.77;;;;;;;;;;6257851;28;20049;-80
2022/04/06 11:49:47;;;;;;;3.53;1.30;;;;;;;;;;6271448;28;20521;-79
2022/04/06 11:52:49;;;;;;;6.50;1.58;;;;;;;;;;6270867;28;20056;-81
2022/04/06 11:55:53;;;;;;;3.67;1.48;;;;;;;;;;6271505;28;20045;-81
2022/04/06 11:58:57;;;;;;;3.40;1.42;;;;;;;;;;6269920;28;20087;-79
2022/04/06 12:01:59;;;;;;;4.38;1.38;;;;;;;;;;6245704;28;20045;-80
2022/04/06 12:05:05;;;;;;;2.87;1.70;;;;;;;;;;6246640;28;20044;-80
2022/04/06 12:08:15;;;;;;;2.80;1.42;;;;;;;;;;6283080;28;20044;-81
2022/04/06 12:11:19;;;;;;;1.85;1.15;;;;;;;;;;6269815;28;20363;-82
2022/04/06 12:14:22;;;;;;;2.13;1.25;;;;;;;;;;6269363;28;20068;-82
2022/04/06 12:17:24;;;;;;;3.67;1.40;;;;;;;;;;6270617;28;20206;-82
2022/04/06 12:20:26;;;;;;;2.60;1.40;;;;;;;;;;6270877;28;20053;-83
2022/04/06 12:23:29;;;;;;;4.37;1.83;;;;;;;;;;6271280;28;20049;-79
2022/04/06 12:26:45;;;;;;;3.55;1.35;;;;;;;;;;6269750;28;20080;-82
2022/04/06 12:30:06;;;;;;;40.13;10.13;;;;;;;;;;6271993;28;20049;-81
2022/04/06 12:33:08;;;;;;;3.72;1.30;;;;;;;;;;6272623;28;20052;-81
2022/04/06 12:36:10;;;;;;;2.63;1.53;;;;;;;;;;6271186;28;20083;-79
2022/04/06 12:39:16;;;;;;;5.10;1.52;;;;;;;;;;6272035;28;20069;-81
2022/04/06 12:42:18;;;;;;;2.72;1.30;;;;;;;;;;6273588;28;20041;-82
2022/04/06 12:45:20;;;;;;;1.30;1.20;;;;;;;;;;6289559;27;20044;-82
2022/04/06 12:48:21;;;;;;;3.80;1.70;;;;;;;;;;6297385;28;20080;-82
2022/04/06 12:51:40;;;;;;;3.08;1.60;;;;;;;;;;6270725;28;20045;-82
2022/04/06 12:54:51;;;;;;;3.03;1.33;;;;;;;;;;6270380;28;20049;-82
2022/04/06 12:57:52;;;;;;;1.95;1.30;;;;;;;;;;6270145;28;20045;-81
2022/04/06 13:00:58;;;;;;;4.35;1.83;;;;;;;;;;6284889;28;20570;-82
2022/04/06 13:04:00;;;;;;;3.38;1.55;;;;;;;;;;6294711;28;20123;-79
2022/04/06 13:07:01;;;;;;;3.30;1.75;;;;;;;;;;6269103;28;20053;-81
2022/04/06 13:10:12;;;;;;;3.28;1.55;;;;;;;;;;6267206;28;20057;-82
2022/04/06 13:13:13;;;;;;;2.10;1.73;;;;;;;;;;6267604;28;20049;-82
2022/04/06 13:16:15;;;;;;;3.28;1.92;;;;;;;;;;6267336;28;20068;-80
2022/04/06 13:19:17;;;;;;;1.60;1.45;;;;;;;;;;6283204;28;20123;-81
2022/04/06 13:22:19;;;;;;;3.22;1.33;;;;;;;;;;6247240;28;20049;-80
2022/04/06 13:25:21;;;;;;;3.95;1.88;;;;;;;;;;6307614;27;20110;-80
2022/04/06 13:28:22;;;;;;;2.30;1.50;;;;;;;;;;6292327;28;20141;-82
2022/04/06 13:31:27;;;;;;;4.65;2.30;;;;;;;;;;6270868;28;20116;-80
2022/04/06 13:34:29;;;;;;;6.05;2.00;;;;;;;;;;6271709;28;20044;-81
2022/04/06 13:37:30;;;;;;;2.38;1.95;;;;;;;;;;6285390;28;20049;-79
2022/04/06 13:40:33;;;;;;;2.17;1.70;;;;;;;;;;6282127;28;20060;-80
2022/04/06 13:43:34;;;;;;;3.53;2.10;;;;;;;;;;6282684;28;20045;-79
2022/04/06 13:46:37;;;;;;;3.10;1.58;;;;;;;;;;6271959;28;20079;-79
2022/04/06 13:49:39;;;;;;;5.45;1.50;;;;;;;;;;6281027;28;20128;-79
2022/04/06 13:52:41;;;;;;;1.90;1.42;;;;;;;;;;6289557;28;20055;-80
2022/04/06 13:55:43;;;;;;;3.55;1.63;;;;;;;;;;6290049;28;20134;-80
2022/04/06 13:58:45;;;;;;;2.30;1.42;;;;;;;;;;6289992;28;20064;-80
2022/04/06 14:01:48;;;;;;;3.33;1.63;;;;;;;;;;6271525;28;20044;-80
2022/04/06 14:04:50;;;;;;;2.75;1.40;;;;;;;;;;6291022;28;20436;-79
2022/04/06 14:07:52;;;;;;;3.17;1.73;;;;;;;;;;6278652;28;20099;-77
2022/04/06 14:10:54;;;;;;;4.05;1.55;;;;;;;;;;6265875;28;20065;-79
2022/04/06 14:13:56;;;;;;;5.57;1.80;;;;;;;;;;6263931;28;20099;-78
2022/04/06 14:16:58;;;;;;;2.92;1.60;;;;;;;;;;6280120;28;20143;-79
2022/04/06 14:20:06;;;;;;;1.35;1.10;;;;;;;;;;6290590;28;20052;-81
2022/04/06 14:23:08;;;;;;;3.70;1.45;;;;;;;;;;6291072;28;20576;-81
2022/04/06 14:26:15;;;;;;;2.38;1.63;;;;;;;;;;6279789;28;20052;-80
2022/04/06 14:29:17;;;;;;;6.20;1.70;;;;;;;;;;6287363;28;20087;-78
2022/04/06 14:32:18;;;;;;;1.88;1.58;;;;;;;;;;6275355;28;20396;-78
2022/04/06 14:35:21;;;;;;;3.72;1.70;;;;;;;;;;6291117;28;20064;-80
2022/04/06 14:38:23;;;;;;;5.05;1.60;;;;;;;;;;6280773;28;20126;-79
2022/04/06 14:41:25;;;;;;;3.08;1.50;;;;;;;;;;6280537;28;20085;-79
2022/04/06 14:44:27;;;;;;;5.60;1.48;;;;;;;;;;6290445;28;20053;-79
2022/04/06 14:47:28;;;;;;;2.22;1.30;;;;;;;;;;6288194;28;20064;-79
2022/04/06 14:50:30;;;;;;;2.38;1.15;;;;;;;;;;6294308;28;20112;-81
2022/04/06 14:53:32;;;;;;;4.55;1.60;;;;;;;;;;6294182;28;20075;-79
2022/04/06 14:56:33;;;;;;;5.03;1.48;;;;;;;;;;6274986;28;20064;-80
2022/04/06 14:59:39;;;;;;;3.63;1.20;;;;;;;;;;6288814;28;20049;-81
2022/04/06 15:02:40;;;;;;;1.90;1.08;;;;;;;;;;6284920;27;20044;-79
2022/04/06 15:05:42;;;;;;;1.88;1.10;;;;;;;;;;6295757;28;20490;-81
2022/04/06 15:08:44;;;;;;;1.55;1.30;;;;;;;;;;6292171;28;20060;-81
2022/04/06 15:11:46;;;;;;;1.90;1.35;;;;;;;;;;6275060;28;20045;-81
2022/04/06 15:14:48;;;;;;;5.15;1.40;;;;;;;;;;6294168;28;20113;-81
2022/04/06 15:17:49;;;;;;;2.38;1.17;;;;;;;;;;6294181;28;20068;-81
2022/04/06 15:20:51;;;;;;;4.35;1.25;;;;;;;;;;6291769;28;20064;-82
2022/04/06 15:23:53;;;;;;;1.63;1.02;;;;;;;;;;6277315;28;20066;-81
2022/04/06 15:26:55;;;;;;;2.28;1.20;;;;;;;;;;6266025;28;20128;-82
2022/04/06 15:30:04;;;;;;;4.45;1.25;;;;;;;;;;6270039;28;20040;-80
2022/04/06 15:33:08;;;;;;;2.15;1.02;;;;;;;;;;6276699;28;20855;-81
2022/04/06 15:39:30;;;;;;;1.58;1.20;;;;;;;;;;6267667;28;20064;-78
2022/04/06 15:42:32;;;;;;;1.52;0.90;;;;;;;;;;6245712;28;20057;-79
2022/04/06 15:45:34;;;;;;;2.20;1.05;;;;;;;;;;6247619;28;20541;-80
2022/04/06 15:48:37;;;;;;;3.67;1.05;;;;;;;;;;6265157;28;20045;-80
2022/04/06 15:51:38;;;;;;;1.67;0.93;;;;;;;;;;6269658;28;20037;-79
2022/04/06 15:54:41;;;;;;;4.50;1.33;;;;;;;;;;6266686;28;20048;-80
2022/04/06 15:57:43;;;;;;;2.45;1.45;;;;;;;;;;6268124;28;20045;-79
2022/04/06 16:00:46;;;;;;;3.10;1.08;;;;;;;;;;6271098;28;20049;-79
2022/04/06 16:03:48;;;;;;;1.13;0.90;;;;;;;;;;6272091;28;20051;-80
2022/04/06 16:06:49;;;;;;;2.65;1.10;;;;;;;;;;6270561;28;20059;-79
2022/04/06 16:09:57;;;;;;;1.95;1.13;;;;;;;;;;6269206;28;20068;-79
2022/04/06 16:12:59;;;;;;;1.13;1.00;;;;;;;;;;6282046;28;20044;-79
2022/04/06 16:16:01;;;;;;;3.17;1.17;;;;;;;;;;6259644;28;20041;-80
2022/04/06 16:19:03;;;;;;;2.20;1.15;;;;;;;;;;6260961;28;20114;-79
2022/04/06 16:22:04;;;;;;;1.40;1.20;;;;;;;;;;6272829;28;20177;-79
2022/04/06 16:25:06;;;;;;;2.20;1.42;;;;;;;;;;6275051;28;20737;-79
2022/04/06 16:28:08;;;;;;;1.48;1.38;;;;;;;;;;6264435;28;20138;-80
2022/04/06 16:31:11;;;;;;;2.47;1.42;;;;;;;;;;6265657;28;20087;-79
2022/04/06 16:34:12;;;;;;;5.30;1.42;;;;;;;;;;6289661;28;20135;-79
2022/04/06 16:37:14;;;;;;;2.55;1.60;;;;;;;;;;6288105;28;20078;-79
2022/04/06 16:40:16;;;;;;;2.17;1.63;;;;;;;;;;6269325;28;20123;-80
2022/04/06 16:43:18;;;;;;;6.43;1.80;;;;;;;;;;6286934;28;20040;-79
2022/04/06 16:46:21;;;;;;;2.35;1.58;;;;;;;;;;6289704;28;20137;-81
2022/04/06 16:49:23;;;;;;;2.53;1.20;;;;;;;;;;6291488;28;20159;-79
2022/04/06 16:55:46;;;;;;;2.58;1.40;;;;;;;;;;6267253;28;20052;-79
2022/04/06 16:58:47;;;;;;;2.58;1.50;;;;;;;;;;6266789;28;20071;-79
2022/04/06 17:01:49;;;;;;;3.85;1.35;;;;;;;;;;6271139;28;20111;-78
2022/04/06 17:04:53;;;;;;;1.92;1.40;;;;;;;;;;6290613;28;20117;-77
2022/04/06 17:07:55;;;;;;;4.97;1.60;;;;;;;;;;6289498;28;20186;-80
2022/04/06 17:10:57;;;;;;;2.58;1.60;;;;;;;;;;6289970;28;20051;-78
2022/04/06 17:14:01;;;;;;;1.33;1.17;;;;;;;;;;6283264;28;20071;-80
2022/04/06 17:17:03;;;;;;;4.43;1.80;;;;;;;;;;6280041;28;20127;-80
2022/04/06 17:20:05;;;;;;;3.55;1.98;;;;;;;;;;6271131;28;20433;-81
2022/04/06 17:23:07;;;;;;;3.63;1.75;;;;;;;;;;6272471;28;20472;-80
2022/04/06 17:26:09;;;;;;;4.93;2.05;;;;;;;;;;6269103;28;20052;-79
2022/04/06 17:29:11;;;;;;;3.67;1.98;;;;;;;;;;6270154;28;20053;-79
2022/04/06 17:32:13;;;;;;;2.75;1.42;;;;;;;;;;6268496;28;20087;-80
2022/04/06 17:35:15;;;;;;;3.25;2.38;;;;;;;;;;6242516;28;20092;-80
2022/04/06 17:38:17;;;;;;;3.45;1.52;;;;;;;;;;6268122;28;20131;-80
2022/04/06 17:41:19;;;;;;;4.18;2.05;;;;;;;;;;6282415;28;20171;-79
2022/04/06 17:44:21;;;;;;;3.53;1.73;;;;;;;;;;6270614;28;20082;-79
2022/04/06 17:47:22;;;;;;;3.03;2.10;;;;;;;;;;6268505;28;20068;-79
2022/04/06 17:50:25;;;;;;;3.25;2.00;;;;;;;;;;6272210;28;20122;-79
2022/04/06 17:53:27;;;;;;;4.30;2.33;;;;;;;;;;6271892;28;20053;-80
2022/04/06 17:56:31;;;;;;;5.10;2.25;;;;;;;;;;6282548;28;20052;-77
2022/04/06 17:59:37;;;;;;;3.95;2.40;;;;;;;;;;6284301;28;20112;-80
2022/04/06 18:02:40;;;;;;;4.13;2.58;;;;;;;;;;6278358;28;20121;-78
2022/04/06 18:05:42;;;;;;;;;;;;;;;;;;6292141;28;20047;-80
2022/04/06 18:08:44;;;;;;;3.67;2.33;;;;;;;;;;6282389;28;20003;-78
2022/04/06 18:15:07;;;;;;;3.30;2.30;;;;;;;;;;6264937;28;20061;-78
2022/04/06 18:18:08;;;;;;;5.30;2.63;;;;;;;;;;6261138;28;20214;-78
2022/04/06 18:21:10;;;;;;;4.85;2.78;;;;;;;;;;6277780;28;20067;-78
2022/04/06 18:24:12;;;;;;;6.50;2.95;;;;;;;;;;6268490;28;20052;-79
2022/04/06 18:27:13;;;;;;;6.95;3.03;;;;;;;;;;6261523;28;20101;-78
2022/04/06 18:30:15;;;;;;;6.70;2.85;;;;;;;;;;6260003;28;20114;-78
2022/04/06 18:33:17;;;;;;;6.22;2.65;;;;;;;;;;6279552;28;20201;-78